Time;durP1;ratioP1;P1;durP2;ratioP2;P2;SDS_P1;SDS_P2;PMS_P1;PMS_P2;Temp;Humidity;BMP_temperature;BMP_pressure;BME280_temperature;BME280_humidity;BME280_pressure;Samples;Min_cycle;Max_cycle;Signal;HPM_P1;HPM_P2
2024/01/17 00:00:09;;;;;;;;;;;17.30;44.20;;;;;;7392907;19;895;-61
2024/01/17 00:02:34;;;;;;;;;;;17.30;44.20;;;;;;7398659;19;783;-62
2024/01/17 00:05:00;;;;;;;;;;;17.30;44.30;;;;;;7394544;19;1484;-62
2024/01/17 00:07:25;;;;;;;;;;;17.20;44.20;;;;;;7395465;19;1701;-62
2024/01/17 00:09:51;;;;;;;;;;;17.20;44.30;;;;;;7395784;19;1982;-62
2024/01/17 00:12:16;;;;;;;;;;;17.20;44.30;;;;;;7400597;19;1446;-61
2024/01/17 00:14:42;;;;;;;;;;;17.20;44.20;;;;;;7403932;19;1607;-62
2024/01/17 00:17:08;;;;;;;;;;;17.20;44.10;;;;;;7400589;19;1188;-62
2024/01/17 00:19:33;;;;;;;;;;;17.30;44.30;;;;;;7398107;19;2484;-62
2024/01/17 00:21:59;;;;;;;;;;;17.30;44.20;;;;;;7400138;19;1660;-61
2024/01/17 00:24:24;;;;;;;;;;;17.30;44.10;;;;;;7403606;19;1562;-62
2024/01/17 00:26:49;;;;;;;;;;;17.30;44.10;;;;;;7405372;19;1640;-62
2024/01/17 00:29:18;;;;;;;;;;;17.30;44.20;;;;;;7400795;19;1434;-61
2024/01/17 00:31:44;;;;;;;;;;;17.30;44.10;;;;;;7403658;19;852;-61
2024/01/17 00:34:09;;;;;;;;;;;17.20;44.10;;;;;;7400792;19;1575;-62
2024/01/17 00:36:35;;;;;;;;;;;17.20;44.00;;;;;;7398320;19;1066;-61
2024/01/17 00:39:00;;;;;;;;;;;17.30;44.00;;;;;;7397241;19;1857;-61
2024/01/17 00:41:25;;;;;;;;;;;17.20;44.00;;;;;;7399420;19;1216;-61
2024/01/17 00:43:51;;;;;;;;;;;17.20;43.80;;;;;;7399213;19;825;-61
2024/01/17 00:46:17;;;;;;;;;;;17.20;43.80;;;;;;7400581;19;871;-61
2024/01/17 00:48:42;;;;;;;;;;;17.20;43.80;;;;;;7399036;19;1560;-62
2024/01/17 00:51:08;;;;;;;;;;;17.20;43.70;;;;;;7403501;19;1885;-62
2024/01/17 00:53:33;;;;;;;;;;;17.20;43.80;;;;;;7399943;19;982;-62
2024/01/17 00:55:58;;;;;;;;;;;17.20;44.00;;;;;;7404879;19;1572;-62
2024/01/17 00:58:24;;;;;;;;;;;17.20;43.80;;;;;;7397271;19;1845;-61
2024/01/17 01:00:49;;;;;;;;;;;17.20;43.80;;;;;;7402701;19;1567;-61
2024/01/17 01:03:15;;;;;;;;;;;17.20;43.90;;;;;;7399171;19;1262;-61
2024/01/17 01:05:40;;;;;;;;;;;17.20;44.00;;;;;;7403466;19;1497;-61
2024/01/17 01:08:06;;;;;;;;;;;17.20;43.90;;;;;;7398408;19;1069;-60
2024/01/17 01:10:31;;;;;;;;;;;17.10;44.50;;;;;;7401272;19;1673;-61
2024/01/17 01:12:57;;;;;;;;;;;17.10;43.80;;;;;;7400608;19;1598;-61
2024/01/17 01:15:22;;;;;;;;;;;17.20;44.00;;;;;;7399540;19;888;-61
2024/01/17 01:17:48;;;;;;;;;;;17.20;44.40;;;;;;7399171;19;1848;-60
2024/01/17 01:20:13;;;;;;;;;;;17.20;43.60;;;;;;7399313;19;1619;-62
2024/01/17 01:22:38;;;;;;;;;;;17.20;43.60;;;;;;7396465;19;2368;-61
2024/01/17 01:25:04;;;;;;;;;;;17.20;43.60;;;;;;7402794;19;1407;-61
2024/01/17 01:27:30;;;;;;;;;;;17.30;43.50;;;;;;7397360;19;1038;-61
2024/01/17 01:29:55;;;;;;;;;;;17.30;43.50;;;;;;7399028;19;2890;-62
2024/01/17 01:32:20;;;;;;;;;;;17.30;43.50;;;;;;7401407;19;1655;-62
2024/01/17 01:34:46;;;;;;;;;;;17.30;43.70;;;;;;7398228;19;1422;-61
2024/01/17 01:37:11;;;;;;;;;;;17.30;43.30;;;;;;7399179;19;1525;-61
2024/01/17 01:39:37;;;;;;;;;;;17.30;43.40;;;;;;7395180;19;1861;-61
2024/01/17 01:42:02;;;;;;;;;;;17.30;43.30;;;;;;7398245;19;808;-61
2024/01/17 01:44:28;;;;;;;;;;;17.30;43.30;;;;;;7397216;19;1014;-62
2024/01/17 01:46:53;;;;;;;;;;;17.30;43.40;;;;;;7400128;19;1480;-61
2024/01/17 01:49:19;;;;;;;;;;;17.30;43.50;;;;;;7396259;19;1521;-61
2024/01/17 01:51:44;;;;;;;;;;;17.30;43.60;;;;;;7396638;19;1193;-61
2024/01/17 01:54:10;;;;;;;;;;;17.20;43.50;;;;;;7396585;19;792;-62
2024/01/17 01:56:36;;;;;;;;;;;17.20;43.60;;;;;;7399693;19;1669;-62
2024/01/17 01:59:01;;;;;;;;;;;17.10;43.70;;;;;;7395170;19;1851;-61
2024/01/17 02:01:27;;;;;;;;;;;17.10;43.70;;;;;;7398469;19;1030;-61
2024/01/17 02:03:53;;;;;;;;;;;17.10;43.70;;;;;;7398132;19;1522;-61
2024/01/17 02:06:18;;;;;;;;;;;17.10;43.90;;;;;;7400677;19;1640;-61
2024/01/17 02:08:44;;;;;;;;;;;17.10;44.00;;;;;;7399651;19;1449;-62
2024/01/17 02:11:09;;;;;;;;;;;17.10;43.90;;;;;;7398185;19;1621;-62
2024/01/17 02:13:35;;;;;;;;;;;17.00;43.60;;;;;;7399938;19;1779;-62
2024/01/17 02:16:00;;;;;;;;;;;17.00;43.60;;;;;;7396483;19;1412;-62
2024/01/17 02:18:26;;;;;;;;;;;17.10;43.20;;;;;;7398028;19;1850;-61
2024/01/17 02:20:51;;;;;;;;;;;17.10;43.50;;;;;;7401986;19;1606;-61
2024/01/17 02:23:23;;;;;;;;;;;17.10;43.30;;;;;;7400886;19;1585;-61
2024/01/17 02:25:49;;;;;;;;;;;17.10;43.20;;;;;;7398548;19;1587;-62
2024/01/17 02:28:15;;;;;;;;;;;17.20;43.00;;;;;;7398017;19;1635;-61
2024/01/17 02:30:40;;;;;;;;;;;17.20;43.00;;;;;;7395724;19;1085;-61
2024/01/17 02:33:05;;;;;;;;;;;17.20;43.00;;;;;;7397809;19;1609;-61
2024/01/17 02:35:31;;;;;;;;;;;17.20;43.20;;;;;;7395712;19;1510;-61
2024/01/17 02:37:56;;;;;;;;;;;17.20;43.00;;;;;;7395965;19;1862;-62
2024/01/17 02:40:22;;;;;;;;;;;17.20;43.10;;;;;;7397763;19;1577;-61
2024/01/17 02:42:47;;;;;;;;;;;17.10;43.10;;;;;;7398708;19;1770;-61
2024/01/17 02:45:13;;;;;;;;;;;17.10;42.90;;;;;;7395288;19;898;-61
2024/01/17 02:47:38;;;;;;;;;;;17.20;42.90;;;;;;7396189;19;1526;-61
2024/01/17 02:50:04;;;;;;;;;;;17.20;42.80;;;;;;7394812;19;1185;-61
2024/01/17 02:52:29;;;;;;;;;;;17.20;42.90;;;;;;7396279;19;1520;-62
2024/01/17 02:54:54;;;;;;;;;;;17.20;43.20;;;;;;7396174;19;1005;-61
2024/01/17 02:57:20;;;;;;;;;;;17.10;43.00;;;;;;7397528;19;1609;-61
2024/01/17 02:59:45;;;;;;;;;;;17.10;43.00;;;;;;7392807;19;1858;-62
2024/01/17 03:02:11;;;;;;;;;;;17.10;43.00;;;;;;7398978;19;1481;-62
2024/01/17 03:04:36;;;;;;;;;;;17.10;43.20;;;;;;7398474;19;1609;-62
2024/01/17 03:07:02;;;;;;;;;;;17.00;43.30;;;;;;7394195;19;1100;-61
2024/01/17 03:09:27;;;;;;;;;;;17.00;43.20;;;;;;7398966;19;1425;-61
2024/01/17 03:11:52;;;;;;;;;;;17.10;43.00;;;;;;7398038;19;1519;-62
2024/01/17 03:14:18;;;;;;;;;;;17.10;43.00;;;;;;7394530;19;1081;-61
2024/01/17 03:16:43;;;;;;;;;;;17.10;42.90;;;;;;7393962;19;966;-61
2024/01/17 03:19:09;;;;;;;;;;;17.20;42.80;;;;;;7394616;19;1849;-61
2024/01/17 03:21:34;;;;;;;;;;;17.20;42.90;;;;;;7398585;19;1704;-61
2024/01/17 03:24:00;;;;;;;;;;;17.10;43.00;;;;;;7394113;19;2465;-61
2024/01/17 03:26:26;;;;;;;;;;;17.10;42.90;;;;;;7397694;19;1497;-61
2024/01/17 03:28:51;;;;;;;;;;;17.00;42.70;;;;;;7397086;19;1642;-61
2024/01/17 03:31:16;;;;;;;;;;;17.00;42.90;;;;;;7397308;19;1073;-61
2024/01/17 03:33:42;;;;;;;;;;;16.90;42.90;;;;;;7395783;19;1606;-62
2024/01/17 03:36:07;;;;;;;;;;;16.90;42.80;;;;;;7395255;19;1353;-62
2024/01/17 03:38:33;;;;;;;;;;;17.00;42.70;;;;;;7394969;19;1845;-62
2024/01/17 03:41:00;;;;;;;;;;;17.00;42.70;;;;;;7393262;19;1003;-62
2024/01/17 03:43:26;;;;;;;;;;;17.00;42.70;;;;;;7396568;19;1599;-61
2024/01/17 03:45:53;;;;;;;;;;;17.00;42.70;;;;;;7393158;19;1418;-62
2024/01/17 03:48:19;;;;;;;;;;;16.90;42.50;;;;;;7395334;19;1680;-61
2024/01/17 03:50:44;;;;;;;;;;;17.00;42.80;;;;;;7394001;19;982;-62
2024/01/17 03:53:10;;;;;;;;;;;16.90;42.90;;;;;;7393405;19;1059;-61
2024/01/17 03:55:35;;;;;;;;;;;17.00;42.80;;;;;;7394007;19;1443;-61
2024/01/17 03:58:01;;;;;;;;;;;17.00;42.80;;;;;;7395693;19;1861;-62
2024/01/17 04:00:26;;;;;;;;;;;17.00;42.60;;;;;;7396421;19;1477;-60
2024/01/17 04:02:52;;;;;;;;;;;17.10;42.40;;;;;;7397090;19;1172;-61
2024/01/17 04:05:18;;;;;;;;;;;17.10;42.50;;;;;;7396229;19;1528;-61
2024/01/17 04:07:43;;;;;;;;;;;17.10;42.40;;;;;;7393990;19;1596;-61
2024/01/17 04:10:09;;;;;;;;;;;17.10;42.40;;;;;;7393225;19;932;-62
2024/01/17 04:12:35;;;;;;;;;;;17.10;42.20;;;;;;7391520;19;1621;-62
2024/01/17 04:15:00;;;;;;;;;;;17.10;42.10;;;;;;7395384;19;1491;-62
2024/01/17 04:17:25;;;;;;;;;;;17.10;42.20;;;;;;7397540;19;1851;-61
2024/01/17 04:19:51;;;;;;;;;;;17.10;42.40;;;;;;7394965;19;1736;-62
2024/01/17 04:22:16;;;;;;;;;;;17.10;42.50;;;;;;7392197;19;998;-62
2024/01/17 04:24:42;;;;;;;;;;;17.10;42.40;;;;;;7392634;19;1519;-62
2024/01/17 04:27:07;;;;;;;;;;;17.10;42.50;;;;;;7394692;19;1513;-62
2024/01/17 04:29:34;;;;;;;;;;;17.10;42.50;;;;;;7395682;19;1678;-62
2024/01/17 04:31:59;;;;;;;;;;;17.00;42.50;;;;;;7395949;19;1527;-61
2024/01/17 04:34:25;;;;;;;;;;;17.00;42.50;;;;;;7391899;19;841;-61
2024/01/17 04:36:50;;;;;;;;;;;17.00;42.70;;;;;;7392954;19;1129;-61
2024/01/17 04:39:16;;;;;;;;;;;17.00;42.60;;;;;;7394828;19;1849;-61
2024/01/17 04:41:42;;;;;;;;;;;17.00;42.70;;;;;;7391704;19;854;-61
2024/01/17 04:44:09;;;;;;;;;;;17.00;42.70;;;;;;7394501;19;1497;-61
2024/01/17 04:46:36;;;;;;;;;;;17.00;42.80;;;;;;7395561;19;1678;-61
2024/01/17 04:49:01;;;;;;;;;;;17.00;42.90;;;;;;7394697;19;1599;-61
2024/01/17 04:51:26;;;;;;;;;;;17.00;43.00;;;;;;7391778;19;998;-62
2024/01/17 04:53:52;;;;;;;;;;;17.00;43.00;;;;;;7393485;19;1880;-62
2024/01/17 04:56:17;;;;;;;;;;;17.00;43.10;;;;;;7391132;19;1071;-62
2024/01/17 04:58:46;;;;;;;;;;;17.00;43.00;;;;;;7396694;19;1854;-61
2024/01/17 05:01:12;;;;;;;;;;;17.10;43.00;;;;;;7397861;19;2638;-62
2024/01/17 05:03:38;;;;;;;;;;;17.10;42.80;;;;;;7401351;19;2689;-61
2024/01/17 05:06:04;;;;;;;;;;;17.10;42.70;;;;;;7398057;19;1217;-61
2024/01/17 05:08:30;;;;;;;;;;;17.10;42.50;;;;;;7399238;19;1526;-62
2024/01/17 05:10:55;;;;;;;;;;;17.10;42.60;;;;;;7397706;19;1317;-62
2024/01/17 05:13:21;;;;;;;;;;;17.10;42.60;;;;;;7400150;19;1570;-62
2024/01/17 05:15:46;;;;;;;;;;;17.10;42.60;;;;;;7398329;19;998;-61
2024/01/17 05:18:12;;;;;;;;;;;17.10;42.50;;;;;;7396970;19;1842;-61
2024/01/17 05:20:37;;;;;;;;;;;17.10;42.50;;;;;;7401760;19;1618;-61
2024/01/17 05:23:03;;;;;;;;;;;17.10;42.60;;;;;;7399264;19;1607;-61
2024/01/17 05:25:28;;;;;;;;;;;17.00;42.50;;;;;;7398993;19;1941;-61
2024/01/17 05:27:53;;;;;;;;;;;17.00;42.40;;;;;;7400916;19;1687;-61
2024/01/17 05:30:19;;;;;;;;;;;17.10;42.40;;;;;;7397487;19;982;-61
2024/01/17 05:32:45;;;;;;;;;;;17.10;42.30;;;;;;7401221;19;1302;-62
2024/01/17 05:35:10;;;;;;;;;;;17.10;42.40;;;;;;7400158;19;1427;-61
2024/01/17 05:37:38;;;;;;;;;;;17.00;42.50;;;;;;7398482;19;1875;-61
2024/01/17 05:40:04;;;;;;;;;;;17.00;42.70;;;;;;7397429;19;811;-62
2024/01/17 05:42:30;;;;;;;;;;;16.90;42.70;;;;;;7399870;19;1368;-62
2024/01/17 05:44:55;;;;;;;;;;;16.90;43.00;;;;;;7400066;19;1683;-60
2024/01/17 05:47:21;;;;;;;;;;;16.90;42.90;;;;;;7401344;19;1433;-62
2024/01/17 05:49:46;;;;;;;;;;;16.90;42.90;;;;;;7398589;19;1499;-62
2024/01/17 05:52:12;;;;;;;;;;;16.90;42.70;;;;;;7398141;19;815;-62
2024/01/17 05:54:37;;;;;;;;;;;16.90;43.00;;;;;;7396763;19;849;-62
2024/01/17 05:57:03;;;;;;;;;;;16.90;42.50;;;;;;7398650;19;1512;-61
2024/01/17 05:59:30;;;;;;;;;;;16.90;42.40;;;;;;7397196;19;1862;-62
2024/01/17 06:01:55;;;;;;;;;;;17.00;42.30;;;;;;7399797;19;1583;-61
2024/01/17 06:04:20;;;;;;;;;;;17.00;42.30;;;;;;7396534;19;1299;-61
2024/01/17 06:06:46;;;;;;;;;;;17.00;42.30;;;;;;7397644;19;813;-61
2024/01/17 06:09:13;;;;;;;;;;;17.10;42.40;;;;;;7396694;19;1462;-61
2024/01/17 06:11:38;;;;;;;;;;;17.00;42.50;;;;;;7393933;19;1314;-61
2024/01/17 06:14:04;;;;;;;;;;;17.00;42.20;;;;;;7397170;19;1598;-61
2024/01/17 06:16:29;;;;;;;;;;;17.00;42.60;;;;;;7395578;19;1101;-61
2024/01/17 06:18:59;;;;;;;;;;;17.00;42.10;;;;;;7395095;19;1846;-62
2024/01/17 06:21:24;;;;;;;;;;;17.10;42.10;;;;;;7399769;19;1678;-62
2024/01/17 06:23:51;;;;;;;;;;;17.10;42.10;;;;;;7395401;19;1206;-61
2024/01/17 06:26:16;;;;;;;;;;;17.10;42.10;;;;;;7399846;19;1664;-61
2024/01/17 06:28:42;;;;;;;;;;;17.00;42.20;;;;;;7395587;19;1436;-61
2024/01/17 06:31:08;;;;;;;;;;;17.00;42.30;;;;;;7399644;19;1476;-61
2024/01/17 06:33:33;;;;;;;;;;;16.90;42.30;;;;;;7398554;19;1525;-61
2024/01/17 06:35:59;;;;;;;;;;;16.90;42.10;;;;;;7395344;19;1048;-61
2024/01/17 06:38:24;;;;;;;;;;;16.90;42.30;;;;;;7393037;19;2028;-60
2024/01/17 06:40:50;;;;;;;;;;;16.90;42.60;;;;;;7395961;19;1662;-62
2024/01/17 06:43:16;;;;;;;;;;;16.90;43.20;;;;;;7397478;19;1534;-62
2024/01/17 06:45:41;;;;;;;;;;;16.90;42.40;;;;;;7396690;19;1655;-61
2024/01/17 06:48:07;;;;;;;;;;;16.90;42.20;;;;;;7397269;19;1772;-61
2024/01/17 06:50:32;;;;;;;;;;;17.00;42.20;;;;;;7398152;19;1452;-62
2024/01/17 06:52:58;;;;;;;;;;;16.90;41.90;;;;;;7396499;19;796;-62
2024/01/17 06:55:23;;;;;;;;;;;17.00;42.30;;;;;;7396340;19;1559;-62
2024/01/17 06:57:49;;;;;;;;;;;17.00;42.20;;;;;;7398842;19;2242;-62
2024/01/17 07:00:15;;;;;;;;;;;16.90;42.60;;;;;;7396035;19;1505;-61
2024/01/17 07:02:40;;;;;;;;;;;17.00;41.90;;;;;;7396580;19;2975;-61
2024/01/17 07:05:06;;;;;;;;;;;17.00;41.90;;;;;;7398830;19;1549;-61
2024/01/17 07:07:32;;;;;;;;;;;17.00;41.90;;;;;;7400171;19;1688;-62
2024/01/17 07:09:57;;;;;;;;;;;17.00;41.90;;;;;;7396497;19;1456;-61
2024/01/17 07:12:23;;;;;;;;;;;17.00;41.80;;;;;;7392454;19;1629;-62
2024/01/17 07:14:49;;;;;;;;;;;17.00;41.60;;;;;;7397233;19;1444;-61
2024/01/17 07:17:15;;;;;;;;;;;17.00;41.70;;;;;;7394019;19;1302;-62
2024/01/17 07:19:40;;;;;;;;;;;17.00;41.50;;;;;;7391791;19;1858;-61
2024/01/17 07:22:06;;;;;;;;;;;17.00;41.60;;;;;;7393676;19;1575;-62
2024/01/17 07:24:32;;;;;;;;;;;17.00;41.60;;;;;;7398026;19;1616;-60
2024/01/17 07:26:57;;;;;;;;;;;17.00;41.80;;;;;;7394095;19;1949;-62
2024/01/17 07:29:22;;;;;;;;;;;17.00;41.90;;;;;;7397048;19;1728;-62
2024/01/17 07:31:48;;;;;;;;;;;17.00;41.90;;;;;;7398153;19;1511;-62
2024/01/17 07:34:14;;;;;;;;;;;17.00;41.90;;;;;;7395917;19;1435;-61
2024/01/17 07:36:39;;;;;;;;;;;17.00;41.90;;;;;;7394835;19;1646;-62
2024/01/17 07:39:05;;;;;;;;;;;16.90;41.80;;;;;;7392563;19;1845;-61
2024/01/17 07:41:33;;;;;;;;;;;16.90;41.80;;;;;;7394497;19;1623;-61
2024/01/17 07:43:58;;;;;;;;;;;17.00;41.90;;;;;;7395995;19;1579;-61
2024/01/17 07:46:24;;;;;;;;;;;17.00;41.90;;;;;;7392487;19;2492;-62
2024/01/17 07:48:49;;;;;;;;;;;17.00;41.90;;;;;;7393050;19;1437;-62
2024/01/17 07:51:15;;;;;;;;;;;17.00;41.70;;;;;;7393270;19;1112;-61
2024/01/17 07:53:40;;;;;;;;;;;17.10;41.90;;;;;;7397199;19;1680;-61
2024/01/17 07:56:05;;;;;;;;;;;17.10;41.80;;;;;;7393457;19;1571;-62
2024/01/17 07:58:31;;;;;;;;;;;17.10;41.60;;;;;;7395363;19;1869;-62
2024/01/17 08:00:57;;;;;;;;;;;17.00;41.60;;;;;;7389029;19;2435;-61
2024/01/17 08:03:22;;;;;;;;;;;17.00;41.60;;;;;;7391119;19;2616;-61
2024/01/17 08:05:48;;;;;;;;;;;17.10;41.50;;;;;;7393395;19;1688;-61
2024/01/17 08:08:13;;;;;;;;;;;17.00;41.60;;;;;;7395177;19;1757;-62
2024/01/17 08:10:39;;;;;;;;;;;17.00;41.80;;;;;;7393133;19;1736;-61
2024/01/17 08:13:07;;;;;;;;;;;17.00;41.80;;;;;;7393850;19;1825;-61
2024/01/17 08:15:32;;;;;;;;;;;17.10;41.90;;;;;;7393828;19;1675;-61
2024/01/17 08:17:58;;;;;;;;;;;17.10;41.90;;;;;;7393676;19;1847;-61
2024/01/17 08:20:23;;;;;;;;;;;17.10;41.80;;;;;;7393285;19;1609;-61
2024/01/17 08:22:49;;;;;;;;;;;17.10;41.90;;;;;;7394109;19;1809;-61
2024/01/17 08:25:14;;;;;;;;;;;17.00;41.90;;;;;;7394775;19;1632;-60
2024/01/17 08:27:40;;;;;;;;;;;17.00;41.90;;;;;;7393505;19;1669;-61
2024/01/17 08:30:08;;;;;;;;;;;17.00;41.90;;;;;;7394540;19;1910;-61
2024/01/17 08:32:35;;;;;;;;;;;17.00;41.90;;;;;;7399603;19;3044;-61
2024/01/17 08:35:00;;;;;;;;;;;17.00;42.10;;;;;;7403416;19;1393;-61
2024/01/17 08:37:26;;;;;;;;;;;16.90;42.00;;;;;;7399512;19;1542;-61
2024/01/17 08:39:51;;;;;;;;;;;17.00;42.00;;;;;;7399652;19;1853;-61
2024/01/17 08:42:16;;;;;;;;;;;17.00;42.00;;;;;;7399443;19;1444;-61
2024/01/17 08:44:45;;;;;;;;;;;17.00;41.90;;;;;;7401805;19;1671;-61
2024/01/17 08:47:11;;;;;;;;;;;17.10;42.00;;;;;;7403388;19;1564;-61
2024/01/17 08:49:40;;;;;;;;;;;17.00;41.90;;;;;;7400806;19;1440;-61
2024/01/17 08:52:05;;;;;;;;;;;17.10;41.90;;;;;;7400229;19;863;-60
2024/01/17 08:54:31;;;;;;;;;;;17.10;41.70;;;;;;7400401;19;1610;-61
2024/01/17 08:56:56;;;;;;;;;;;17.10;41.50;;;;;;7400896;19;1498;-61
2024/01/17 08:59:22;;;;;;;;;;;17.10;41.60;;;;;;7399112;19;1842;-61
2024/01/17 09:01:47;;;;;;;;;;;17.10;41.80;;;;;;7401203;19;2931;-61
2024/01/17 09:04:13;;;;;;;;;;;17.10;41.50;;;;;;7397200;19;2725;-61
2024/01/17 09:06:38;;;;;;;;;;;17.20;41.50;;;;;;7401428;19;2846;-61
2024/01/17 09:09:04;;;;;;;;;;;17.20;41.50;;;;;;7398435;19;1522;-60
2024/01/17 09:11:31;;;;;;;;;;;17.10;41.60;;;;;;7400120;19;1812;-61
2024/01/17 09:13:57;;;;;;;;;;;17.10;41.70;;;;;;7401173;19;1681;-61
2024/01/17 09:16:23;;;;;;;;;;;17.10;41.80;;;;;;7399156;19;1613;-61
2024/01/17 09:18:48;;;;;;;;;;;17.10;41.90;;;;;;7398224;19;1846;-61
2024/01/17 09:21:14;;;;;;;;;;;17.00;41.90;;;;;;7400457;19;1582;-61
2024/01/17 09:23:39;;;;;;;;;;;17.00;41.90;;;;;;7400432;19;2484;-61
2024/01/17 09:26:05;;;;;;;;;;;17.00;42.10;;;;;;7399108;19;1577;-61
2024/01/17 09:28:31;;;;;;;;;;;17.00;42.20;;;;;;7398916;19;2748;-61
2024/01/17 09:30:56;;;;;;;;;;;17.00;42.00;;;;;;7402276;19;1511;-61
2024/01/17 09:33:22;;;;;;;;;;;17.00;42.10;;;;;;7399443;19;840;-61
2024/01/17 09:35:48;;;;;;;;;;;17.00;41.90;;;;;;7401225;19;1434;-61
2024/01/17 09:38:14;;;;;;;;;;;17.00;41.90;;;;;;7397080;19;1842;-61
2024/01/17 09:40:39;;;;;;;;;;;17.00;41.90;;;;;;7400185;19;2787;-60
2024/01/17 09:43:06;;;;;;;;;;;17.00;42.00;;;;;;7393318;19;2703;-61
2024/01/17 09:45:32;;;;;;;;;;;17.10;42.10;;;;;;7399017;19;1579;-61
2024/01/17 09:47:58;;;;;;;;;;;17.10;42.00;;;;;;7398298;19;1743;-61
2024/01/17 09:50:23;;;;;;;;;;;17.20;42.20;;;;;;7399161;19;1595;-61
2024/01/17 09:52:49;;;;;;;;;;;17.20;42.50;;;;;;7391930;19;2503;-62
2024/01/17 09:55:17;;;;;;;;;;;17.20;42.60;;;;;;7400460;19;2048;-62
2024/01/17 09:57:45;;;;;;;;;;;17.20;42.50;;;;;;7396175;19;2464;-62
2024/01/17 10:00:10;;;;;;;;;;;17.10;42.70;;;;;;7397961;19;1577;-61
2024/01/17 10:02:36;;;;;;;;;;;17.10;42.80;;;;;;7399552;19;1633;-62
2024/01/17 10:05:04;;;;;;;;;;;17.10;42.70;;;;;;7397007;19;2231;-61
2024/01/17 10:07:29;;;;;;;;;;;17.10;42.90;;;;;;7391338;19;3403;-61
2024/01/17 10:09:55;;;;;;;;;;;17.10;43.00;;;;;;7398733;19;1510;-62
2024/01/17 10:12:20;;;;;;;;;;;17.00;43.20;;;;;;7397471;19;1744;-61
2024/01/17 10:14:46;;;;;;;;;;;17.00;43.60;;;;;;7398436;19;1322;-60
2024/01/17 10:17:11;;;;;;;;;;;16.90;43.60;;;;;;7398131;19;1679;-61
2024/01/17 10:19:37;;;;;;;;;;;16.90;43.50;;;;;;7398078;19;1844;-61
2024/01/17 10:22:06;;;;;;;;;;;17.00;43.60;;;;;;7399635;19;1312;-61
2024/01/17 10:24:32;;;;;;;;;;;17.00;43.30;;;;;;7396385;19;1552;-61
2024/01/17 10:27:01;;;;;;;;;;;17.10;43.30;;;;;;7397495;19;1668;-61
2024/01/17 10:29:26;;;;;;;;;;;17.10;43.30;;;;;;7398779;19;1130;-61
2024/01/17 10:31:52;;;;;;;;;;;17.20;43.30;;;;;;7397912;19;1395;-61
2024/01/17 10:34:17;;;;;;;;;;;17.20;43.20;;;;;;7397449;19;1768;-61
2024/01/17 10:36:44;;;;;;;;;;;17.20;43.30;;;;;;7396758;19;1710;-61
2024/01/17 10:39:11;;;;;;;;;;;17.20;43.30;;;;;;7397461;19;1862;-61
2024/01/17 10:41:49;;;;;;;;;;;17.20;43.20;;;;;;7398218;19;1390;-61
2024/01/17 10:44:17;;;;;;;;;;;17.30;43.20;;;;;;7395449;19;1318;-61
2024/01/17 10:46:42;;;;;;;;;;;17.30;43.20;;;;;;7395470;19;2375;-61
2024/01/17 10:49:08;;;;;;;;;;;17.20;43.50;;;;;;7397271;19;1899;-61
2024/01/17 10:51:34;;;;;;;;;;;17.20;43.50;;;;;;7395459;19;2298;-61
2024/01/17 10:53:59;;;;;;;;;;;17.20;43.50;;;;;;7395483;19;2005;-62
2024/01/17 10:56:26;;;;;;;;;;;17.10;43.50;;;;;;7395369;19;1649;-62
2024/01/17 10:58:51;;;;;;;;;;;17.10;43.60;;;;;;7395646;19;1849;-62
2024/01/17 11:01:35;;;;;;;;;;;17.10;43.60;;;;;;7396820;19;1715;-62
2024/01/17 11:04:10;;;;;;;;;;;17.00;43.80;;;;;;7397511;19;1559;-62
2024/01/17 11:06:36;;;;;;;;;;;17.00;43.90;;;;;;7394010;19;2573;-64
2024/01/17 11:09:01;;;;;;;;;;;17.00;43.90;;;;;;7396725;19;2009;-61
2024/01/17 11:11:28;;;;;;;;;;;17.00;44.00;;;;;;7395596;19;1497;-61
2024/01/17 11:13:53;;;;;;;;;;;17.10;44.20;;;;;;7397380;19;1560;-61
2024/01/17 11:16:18;;;;;;;;;;;17.70;43.50;;;;;;7399204;19;1534;-61
2024/01/17 11:18:46;;;;;;;;;;;18.60;42.20;;;;;;7394239;19;1846;-62
2024/01/17 11:21:11;;;;;;;;;;;19.20;41.00;;;;;;7398442;19;1541;-61
2024/01/17 11:23:55;;;;;;;;;;;19.70;40.20;;;;;;7401423;19;1428;-62
2024/01/17 11:26:23;;;;;;;;;;;19.90;39.60;;;;;;7397885;19;1636;-62
2024/01/17 11:29:01;;;;;;;;;;;20.20;39.20;;;;;;7394504;19;2626;-62
2024/01/17 11:31:27;;;;;;;;;;;20.30;38.90;;;;;;7395226;19;1585;-61
2024/01/17 11:33:52;;;;;;;;;;;20.40;38.80;;;;;;7397294;19;1543;-62
2024/01/17 11:36:36;;;;;;;;;;;20.40;38.90;;;;;;7395401;19;1558;-61
2024/01/17 11:39:04;;;;;;;;;;;20.50;38.80;;;;;;7396466;19;1851;-61
2024/01/17 11:41:33;;;;;;;;;;;20.50;38.80;;;;;;7392350;19;1596;-62
2024/01/17 11:43:58;;;;;;;;;;;20.50;38.90;;;;;;7395621;19;1646;-61
2024/01/17 11:46:24;;;;;;;;;;;20.50;38.90;;;;;;7394758;19;2349;-61
2024/01/17 11:48:50;;;;;;;;;;;20.60;38.90;;;;;;7393348;19;1656;-62
2024/01/17 11:51:16;;;;;;;;;;;20.60;38.80;;;;;;7395928;19;1753;-61
2024/01/17 11:53:42;;;;;;;;;;;20.60;38.80;;;;;;7394063;19;1721;-62
2024/01/17 11:56:08;;;;;;;;;;;20.60;38.70;;;;;;7396079;19;1554;-62
2024/01/17 11:58:37;;;;;;;;;;;20.70;38.80;;;;;;7395043;19;1814;-62
2024/01/17 12:01:04;;;;;;;;;;;20.70;38.90;;;;;;7396412;19;1887;-62
2024/01/17 12:03:32;;;;;;;;;;;20.70;38.80;;;;;;7396173;19;1523;-62
2024/01/17 12:05:58;;;;;;;;;;;20.80;38.70;;;;;;7396753;19;1516;-62
2024/01/17 12:08:23;;;;;;;;;;;20.80;38.70;;;;;;7399611;19;3431;-62
2024/01/17 12:10:52;;;;;;;;;;;20.80;38.60;;;;;;7399514;19;1583;-62
2024/01/17 12:13:18;;;;;;;;;;;20.90;38.70;;;;;;7400815;19;1562;-62
2024/01/17 12:15:45;;;;;;;;;;;20.90;38.50;;;;;;7402706;19;1611;-62
2024/01/17 12:18:10;;;;;;;;;;;20.90;38.50;;;;;;7401681;19;1842;-62
2024/01/17 12:20:36;;;;;;;;;;;21.00;38.70;;;;;;7401858;19;1415;-62
2024/01/17 12:23:01;;;;;;;;;;;21.00;38.60;;;;;;7403387;19;1500;-62
2024/01/17 12:25:26;;;;;;;;;;;20.90;38.60;;;;;;7404428;19;1720;-62
2024/01/17 12:27:55;;;;;;;;;;;20.90;38.70;;;;;;7403945;19;1341;-62
2024/01/17 12:30:21;;;;;;;;;;;20.90;38.70;;;;;;7404443;19;1606;-62
2024/01/17 12:32:47;;;;;;;;;;;20.90;38.70;;;;;;7404349;19;1552;-62
2024/01/17 12:35:12;;;;;;;;;;;20.90;38.70;;;;;;7404627;19;1677;-62
2024/01/17 12:37:38;;;;;;;;;;;20.90;38.80;;;;;;7402013;19;1468;-62
2024/01/17 12:40:04;;;;;;;;;;;20.80;38.80;;;;;;7400754;19;1849;-62
2024/01/17 12:42:32;;;;;;;;;;;20.80;39.00;;;;;;7403271;19;1588;-61
2024/01/17 12:44:57;;;;;;;;;;;20.80;39.00;;;;;;7403190;19;1947;-62
2024/01/17 12:47:23;;;;;;;;;;;20.80;39.00;;;;;;7402758;19;2434;-62
2024/01/17 12:49:48;;;;;;;;;;;20.70;39.10;;;;;;7402081;19;1910;-62
2024/01/17 12:52:14;;;;;;;;;;;20.70;39.20;;;;;;7403569;19;2037;-61
2024/01/17 12:54:39;;;;;;;;;;;20.80;39.20;;;;;;7403703;19;1821;-62
2024/01/17 12:57:05;;;;;;;;;;;20.80;39.10;;;;;;7401539;19;1846;-61
2024/01/17 12:59:30;;;;;;;;;;;20.80;39.10;;;;;;7404698;19;2611;-62
2024/01/17 13:01:58;;;;;;;;;;;20.80;39.00;;;;;;7401361;19;3110;-62
2024/01/17 13:04:24;;;;;;;;;;;20.90;39.00;;;;;;7399765;19;1323;-62
2024/01/17 13:06:51;;;;;;;;;;;20.90;39.00;;;;;;7402310;19;1542;-62
2024/01/17 13:09:17;;;;;;;;;;;20.90;39.00;;;;;;7399212;19;3041;-62
2024/01/17 13:11:49;;;;;;;;;;;21.00;39.00;;;;;;7401214;19;1697;-62
2024/01/17 13:14:18;;;;;;;;;;;21.00;38.90;;;;;;7403779;19;1693;-61
2024/01/17 13:16:45;;;;;;;;;;;20.90;38.80;;;;;;7404336;19;1841;-61
2024/01/17 13:19:12;;;;;;;;;;;21.00;38.80;;;;;;7399224;19;1845;-61
2024/01/17 13:21:38;;;;;;;;;;;21.00;38.80;;;;;;7405256;19;1554;-61
2024/01/17 13:24:04;;;;;;;;;;;21.10;38.80;;;;;;7404827;19;2672;-62
2024/01/17 13:26:30;;;;;;;;;;;21.00;38.90;;;;;;7399674;19;1627;-62
2024/01/17 13:28:56;;;;;;;;;;;21.00;38.90;;;;;;7399904;19;1541;-61
2024/01/17 13:31:22;;;;;;;;;;;21.10;39.10;;;;;;7397386;19;2660;-62
2024/01/17 13:33:49;;;;;;;;;;;21.10;39.00;;;;;;7402111;19;2903;-62
2024/01/17 13:36:15;;;;;;;;;;;21.10;39.00;;;;;;7403428;19;1736;-61
2024/01/17 13:38:41;;;;;;;;;;;21.10;39.10;;;;;;7398746;19;1849;-62
2024/01/17 13:41:07;;;;;;;;;;;21.10;39.20;;;;;;7402394;19;1697;-62
2024/01/17 13:43:32;;;;;;;;;;;21.10;39.20;;;;;;7399274;19;864;-61
2024/01/17 13:45:58;;;;;;;;;;;21.10;39.30;;;;;;7402275;19;1668;-62
2024/01/17 13:48:23;;;;;;;;;;;21.10;39.30;;;;;;7400678;19;2449;-61
2024/01/17 13:50:49;;;;;;;;;;;21.10;39.30;;;;;;7401550;19;1554;-61
2024/01/17 13:53:18;;;;;;;;;;;21.00;39.30;;;;;;7402320;19;1517;-62
2024/01/17 13:55:44;;;;;;;;;;;21.10;39.30;;;;;;7397130;19;871;-61
2024/01/17 13:58:10;;;;;;;;;;;21.20;39.30;;;;;;7399931;19;1846;-62
2024/01/17 14:00:38;;;;;;;;;;;21.10;39.30;;;;;;7399215;19;1984;-62
2024/01/17 14:03:04;;;;;;;;;;;21.10;39.20;;;;;;7400803;19;1524;-61
2024/01/17 14:05:30;;;;;;;;;;;21.30;39.30;;;;;;7399997;19;1888;-62
2024/01/17 14:07:55;;;;;;;;;;;21.20;39.20;;;;;;7399275;19;1653;-62
2024/01/17 14:10:21;;;;;;;;;;;21.30;39.20;;;;;;7398013;19;3261;-62
2024/01/17 14:12:47;;;;;;;;;;;21.30;39.20;;;;;;7399331;19;1610;-62
2024/01/17 14:15:12;;;;;;;;;;;21.20;39.40;;;;;;7398865;19;1831;-62
2024/01/17 14:17:38;;;;;;;;;;;21.20;39.30;;;;;;7400286;19;1651;-61
2024/01/17 14:20:13;;;;;;;;;;;21.20;39.30;;;;;;7394160;19;1840;-62
2024/01/17 14:22:38;;;;;;;;;;;21.30;39.30;;;;;;7400915;19;1595;-62